sensor_id;sensor_type;location;lat;lon;timestamp;pressure;altitude;pressure_sealevel;temperature;humidity
13867;BME280;7003;46.982;15.248;2023-06-14T00:00:08;96885.47;;;15.12;100.00
13867;BME280;7003;46.982;15.248;2023-06-14T00:02:35;96883.66;;;15.19;100.00
13867;BME280;7003;46.982;15.248;2023-06-14T00:05:07;96886.97;;;15.09;100.00
13867;BME280;7003;46.982;15.248;2023-06-14T00:07:36;96891.84;;;15.03;100.00
13867;BME280;7003;46.982;15.248;2023-06-14T00:10:09;96886.91;;;15.06;100.00
13867;BME280;7003;46.982;15.248;2023-06-14T00:12:38;96876.41;;;14.93;100.00
13867;BME280;7003;46.982;15.248;2023-06-14T00:15:07;96883.41;;;15.01;100.00
13867;BME280;7003;46.982;15.248;2023-06-14T00:17:35;96877.41;;;14.85;100.00
13867;BME280;7003;46.982;15.248;2023-06-14T00:20:04;96869.00;;;14.87;100.00
13867;BME280;7003;46.982;15.248;2023-06-14T00:22:34;96867.84;;;14.84;100.00
13867;BME280;7003;46.982;15.248;2023-06-14T00:25:03;96864.63;;;14.75;100.00
13867;BME280;7003;46.982;15.248;2023-06-14T00:27:32;96875.97;;;14.91;100.00
13867;BME280;7003;46.982;15.248;2023-06-14T00:29:59;96868.50;;;14.78;100.00
13867;BME280;7003;46.982;15.248;2023-06-14T00:32:26;96871.56;;;14.80;100.00
13867;BME280;7003;46.982;15.248;2023-06-14T00:34:56;96869.28;;;14.78;100.00
13867;BME280;7003;46.982;15.248;2023-06-14T00:37:23;96880.38;;;14.80;100.00
13867;BME280;7003;46.982;15.248;2023-06-14T00:39:50;96875.09;;;14.61;100.00
13867;BME280;7003;46.982;15.248;2023-06-14T00:42:27;96878.47;;;14.58;100.00
13867;BME280;7003;46.982;15.248;2023-06-14T00:44:58;96877.59;;;14.50;100.00
13867;BME280;7003;46.982;15.248;2023-06-14T00:47:25;96874.25;;;14.57;100.00
13867;BME280;7003;46.982;15.248;2023-06-14T00:49:56;96870.75;;;14.53;100.00
13867;BME280;7003;46.982;15.248;2023-06-14T00:52:25;96870.63;;;14.46;100.00
13867;BME280;7003;46.982;15.248;2023-06-14T00:54:55;96868.09;;;14.53;100.00
13867;BME280;7003;46.982;15.248;2023-06-14T00:57:22;96861.09;;;14.48;100.00
13867;BME280;7003;46.982;15.248;2023-06-14T00:59:52;96859.94;;;14.46;100.00
13867;BME280;7003;46.982;15.248;2023-06-14T01:02:22;96857.38;;;14.53;100.00
13867;BME280;7003;46.982;15.248;2023-06-14T01:04:50;96862.31;;;14.51;100.00
13867;BME280;7003;46.982;15.248;2023-06-14T01:07:27;96857.06;;;14.58;100.00
13867;BME280;7003;46.982;15.248;2023-06-14T01:10:09;96857.84;;;14.58;100.00
13867;BME280;7003;46.982;15.248;2023-06-14T01:12:54;96855.06;;;14.51;100.00
13867;BME280;7003;46.982;15.248;2023-06-14T01:15:27;96849.66;;;14.48;100.00
13867;BME280;7003;46.982;15.248;2023-06-14T01:17:58;96848.88;;;14.47;100.00
13867;BME280;7003;46.982;15.248;2023-06-14T01:20:33;96837.78;;;14.49;100.00
13867;BME280;7003;46.982;15.248;2023-06-14T01:23:05;96849.78;;;14.55;100.00
13867;BME280;7003;46.982;15.248;2023-06-14T01:25:32;96835.41;;;14.67;100.00
13867;BME280;7003;46.982;15.248;2023-06-14T01:28:04;96841.44;;;14.60;100.00
13867;BME280;7003;46.982;15.248;2023-06-14T01:30:40;96847.91;;;14.59;100.00
13867;BME280;7003;46.982;15.248;2023-06-14T01:33:13;96837.31;;;14.66;100.00
13867;BME280;7003;46.982;15.248;2023-06-14T01:35:44;96836.44;;;14.58;100.00
13867;BME280;7003;46.982;15.248;2023-06-14T01:38:14;96824.59;;;14.59;100.00
13867;BME280;7003;46.982;15.248;2023-06-14T01:40:42;96825.97;;;14.50;100.00
13867;BME280;7003;46.982;15.248;2023-06-14T01:43:11;96827.09;;;14.49;100.00
13867;BME280;7003;46.982;15.248;2023-06-14T01:45:40;96835.84;;;14.46;100.00
13867;BME280;7003;46.982;15.248;2023-06-14T01:48:08;96827.47;;;14.47;100.00
13867;BME280;7003;46.982;15.248;2023-06-14T01:50:36;96835.53;;;14.51;100.00
13867;BME280;7003;46.982;15.248;2023-06-14T01:53:07;96833.19;;;14.46;100.00
13867;BME280;7003;46.982;15.248;2023-06-14T01:55:36;96839.44;;;14.34;100.00
13867;BME280;7003;46.982;15.248;2023-06-14T01:58:04;96829.69;;;14.22;100.00
13867;BME280;7003;46.982;15.248;2023-06-14T02:00:32;96831.25;;;14.23;100.00
13867;BME280;7003;46.982;15.248;2023-06-14T02:02:59;96828.19;;;14.25;100.00
13867;BME280;7003;46.982;15.248;2023-06-14T02:05:29;96827.84;;;14.26;100.00
13867;BME280;7003;46.982;15.248;2023-06-14T02:07:56;96834.81;;;14.31;100.00
13867;BME280;7003;46.982;15.248;2023-06-14T02:10:23;96820.94;;;14.25;100.00
13867;BME280;7003;46.982;15.248;2023-06-14T02:12:54;96825.59;;;14.29;100.00
13867;BME280;7003;46.982;15.248;2023-06-14T02:15:21;96832.94;;;14.12;100.00
13867;BME280;7003;46.982;15.248;2023-06-14T02:17:49;96834.78;;;14.08;100.00
13867;BME280;7003;46.982;15.248;2023-06-14T02:20:16;96828.44;;;14.16;100.00
13867;BME280;7003;46.982;15.248;2023-06-14T02:22:44;96829.44;;;14.08;100.00
13867;BME280;7003;46.982;15.248;2023-06-14T02:25:14;96830.69;;;14.14;100.00
13867;BME280;7003;46.982;15.248;2023-06-14T02:27:41;96832.81;;;14.05;100.00
13867;BME280;7003;46.982;15.248;2023-06-14T02:30:11;96832.13;;;14.08;100.00
13867;BME280;7003;46.982;15.248;2023-06-14T02:32:38;96830.25;;;14.12;100.00
13867;BME280;7003;46.982;15.248;2023-06-14T02:35:08;96831.34;;;14.08;100.00
13867;BME280;7003;46.982;15.248;2023-06-14T02:37:36;96826.81;;;14.12;100.00
13867;BME280;7003;46.982;15.248;2023-06-14T02:40:04;96828.72;;;14.11;100.00
13867;BME280;7003;46.982;15.248;2023-06-14T02:42:31;96830.56;;;14.07;100.00
13867;BME280;7003;46.982;15.248;2023-06-14T02:45:01;96838.97;;;14.09;100.00
13867;BME280;7003;46.982;15.248;2023-06-14T02:47:33;96831.97;;;14.01;100.00
13867;BME280;7003;46.982;15.248;2023-06-14T02:50:03;96832.25;;;13.96;100.00
13867;BME280;7003;46.982;15.248;2023-06-14T02:52:33;96836.22;;;13.83;100.00
13867;BME280;7003;46.982;15.248;2023-06-14T02:55:00;96834.59;;;13.78;100.00
13867;BME280;7003;46.982;15.248;2023-06-14T02:57:28;96842.25;;;13.80;100.00
13867;BME280;7003;46.982;15.248;2023-06-14T02:59:56;96841.00;;;13.93;100.00
13867;BME280;7003;46.982;15.248;2023-06-14T03:02:23;96835.88;;;13.84;100.00
13867;BME280;7003;46.982;15.248;2023-06-14T03:04:52;96832.56;;;13.91;100.00
13867;BME280;7003;46.982;15.248;2023-06-14T03:07:19;96831.44;;;13.92;100.00
13867;BME280;7003;46.982;15.248;2023-06-14T03:09:49;96822.63;;;13.92;100.00
13867;BME280;7003;46.982;15.248;2023-06-14T03:12:16;96819.06;;;13.84;100.00
13867;BME280;7003;46.982;15.248;2023-06-14T03:14:43;96820.31;;;13.90;100.00
13867;BME280;7003;46.982;15.248;2023-06-14T03:17:12;96821.13;;;13.94;100.00
13867;BME280;7003;46.982;15.248;2023-06-14T03:19:40;96816.44;;;13.87;100.00
13867;BME280;7003;46.982;15.248;2023-06-14T03:22:09;96821.00;;;13.87;100.00
13867;BME280;7003;46.982;15.248;2023-06-14T03:24:40;96824.88;;;13.90;100.00
13867;BME280;7003;46.982;15.248;2023-06-14T03:27:08;96821.44;;;13.89;100.00
13867;BME280;7003;46.982;15.248;2023-06-14T03:29:41;96818.34;;;13.87;100.00
13867;BME280;7003;46.982;15.248;2023-06-14T03:32:10;96820.72;;;13.92;100.00
13867;BME280;7003;46.982;15.248;2023-06-14T03:34:40;96827.13;;;13.87;100.00
13867;BME280;7003;46.982;15.248;2023-06-14T03:37:12;96831.78;;;13.91;100.00
13867;BME280;7003;46.982;15.248;2023-06-14T03:39:42;96829.53;;;13.93;100.00
13867;BME280;7003;46.982;15.248;2023-06-14T03:42:13;96833.38;;;13.95;100.00
13867;BME280;7003;46.982;15.248;2023-06-14T03:44:41;96831.69;;;13.87;100.00
13867;BME280;7003;46.982;15.248;2023-06-14T03:47:11;96836.13;;;13.79;100.00
13867;BME280;7003;46.982;15.248;2023-06-14T03:49:39;96834.22;;;13.80;100.00
13867;BME280;7003;46.982;15.248;2023-06-14T03:52:08;96832.81;;;13.86;100.00
13867;BME280;7003;46.982;15.248;2023-06-14T03:54:38;96835.66;;;13.93;100.00
13867;BME280;7003;46.982;15.248;2023-06-14T03:57:06;96834.88;;;13.93;100.00
13867;BME280;7003;46.982;15.248;2023-06-14T03:59:34;96844.41;;;14.13;100.00
13867;BME280;7003;46.982;15.248;2023-06-14T04:02:01;96846.59;;;14.07;100.00
13867;BME280;7003;46.982;15.248;2023-06-14T04:04:30;96848.84;;;14.05;100.00
13867;BME280;7003;46.982;15.248;2023-06-14T04:07:00;96853.72;;;14.00;100.00
13867;BME280;7003;46.982;15.248;2023-06-14T04:09:29;96850.09;;;14.11;100.00
13867;BME280;7003;46.982;15.248;2023-06-14T04:11:58;96845.63;;;13.96;100.00
13867;BME280;7003;46.982;15.248;2023-06-14T04:14:26;96843.94;;;14.07;100.00
13867;BME280;7003;46.982;15.248;2023-06-14T04:16:54;96842.94;;;14.15;100.00
13867;BME280;7003;46.982;15.248;2023-06-14T04:19:22;96852.91;;;14.18;100.00
13867;BME280;7003;46.982;15.248;2023-06-14T04:21:50;96848.56;;;14.10;100.00
13867;BME280;7003;46.982;15.248;2023-06-14T04:24:20;96848.97;;;14.12;100.00
13867;BME280;7003;46.982;15.248;2023-06-14T04:26:49;96846.00;;;14.17;100.00
13867;BME280;7003;46.982;15.248;2023-06-14T04:29:19;96849.22;;;14.26;100.00
13867;BME280;7003;46.982;15.248;2023-06-14T04:31:47;96856.56;;;14.30;100.00
13867;BME280;7003;46.982;15.248;2023-06-14T04:34:15;96856.88;;;14.24;100.00
13867;BME280;7003;46.982;15.248;2023-06-14T04:36:43;96866.13;;;14.31;100.00
13867;BME280;7003;46.982;15.248;2023-06-14T04:39:15;96866.00;;;14.23;100.00
13867;BME280;7003;46.982;15.248;2023-06-14T04:41:47;96864.50;;;14.26;100.00
13867;BME280;7003;46.982;15.248;2023-06-14T04:44:19;96862.38;;;14.35;100.00
13867;BME280;7003;46.982;15.248;2023-06-14T04:46:47;96867.84;;;14.39;100.00
13867;BME280;7003;46.982;15.248;2023-06-14T04:49:15;96859.50;;;14.44;100.00
13867;BME280;7003;46.982;15.248;2023-06-14T04:51:45;96864.38;;;14.38;100.00
13867;BME280;7003;46.982;15.248;2023-06-14T04:54:17;96876.13;;;14.34;100.00
13867;BME280;7003;46.982;15.248;2023-06-14T04:56:44;96875.72;;;14.32;100.00
13867;BME280;7003;46.982;15.248;2023-06-14T04:59:12;96877.50;;;14.24;100.00
13867;BME280;7003;46.982;15.248;2023-06-14T05:01:47;96882.53;;;14.29;100.00
13867;BME280;7003;46.982;15.248;2023-06-14T05:04:20;96888.13;;;14.40;100.00
13867;BME280;7003;46.982;15.248;2023-06-14T05:06:53;96880.69;;;14.52;100.00
13867;BME280;7003;46.982;15.248;2023-06-14T05:09:22;96877.81;;;14.64;100.00
13867;BME280;7003;46.982;15.248;2023-06-14T05:11:51;96875.91;;;14.65;100.00
13867;BME280;7003;46.982;15.248;2023-06-14T05:14:19;96880.16;;;14.66;100.00
13867;BME280;7003;46.982;15.248;2023-06-14T05:16:49;96887.47;;;14.69;100.00
13867;BME280;7003;46.982;15.248;2023-06-14T05:19:17;96883.59;;;14.67;100.00
13867;BME280;7003;46.982;15.248;2023-06-14T05:21:47;96886.50;;;14.58;100.00
13867;BME280;7003;46.982;15.248;2023-06-14T05:24:17;96878.94;;;14.63;100.00
13867;BME280;7003;46.982;15.248;2023-06-14T05:26:48;96894.97;;;14.60;100.00
13867;BME280;7003;46.982;15.248;2023-06-14T05:29:18;96896.03;;;14.55;100.00
13867;BME280;7003;46.982;15.248;2023-06-14T05:31:47;96896.56;;;14.64;100.00
13867;BME280;7003;46.982;15.248;2023-06-14T05:34:16;96893.06;;;14.60;100.00
13867;BME280;7003;46.982;15.248;2023-06-14T05:36:44;96897.03;;;14.47;100.00
13867;BME280;7003;46.982;15.248;2023-06-14T05:39:15;96896.41;;;14.54;100.00
13867;BME280;7003;46.982;15.248;2023-06-14T05:41:45;96897.56;;;14.56;100.00
13867;BME280;7003;46.982;15.248;2023-06-14T05:44:14;96902.69;;;14.65;100.00
13867;BME280;7003;46.982;15.248;2023-06-14T05:46:44;96898.56;;;14.71;100.00
13867;BME280;7003;46.982;15.248;2023-06-14T05:49:12;96902.88;;;14.76;100.00
13867;BME280;7003;46.982;15.248;2023-06-14T05:51:41;96907.56;;;14.82;100.00
13867;BME280;7003;46.982;15.248;2023-06-14T05:54:09;96904.00;;;14.75;100.00
13867;BME280;7003;46.982;15.248;2023-06-14T05:56:39;96909.00;;;14.76;100.00
13867;BME280;7003;46.982;15.248;2023-06-14T05:59:10;96903.66;;;14.76;100.00
13867;BME280;7003;46.982;15.248;2023-06-14T06:01:38;96901.09;;;14.83;100.00
13867;BME280;7003;46.982;15.248;2023-06-14T06:04:06;96903.31;;;14.78;100.00
13867;BME280;7003;46.982;15.248;2023-06-14T06:06:36;96906.88;;;14.85;100.00
13867;BME280;7003;46.982;15.248;2023-06-14T06:09:06;96907.16;;;14.80;100.00
13867;BME280;7003;46.982;15.248;2023-06-14T06:11:34;96899.63;;;14.86;100.00
13867;BME280;7003;46.982;15.248;2023-06-14T06:14:04;96903.94;;;14.94;100.00
13867;BME280;7003;46.982;15.248;2023-06-14T06:16:35;96908.94;;;14.95;100.00
13867;BME280;7003;46.982;15.248;2023-06-14T06:19:05;96911.69;;;14.99;100.00
13867;BME280;7003;46.982;15.248;2023-06-14T06:21:33;96915.03;;;15.19;100.00
13867;BME280;7003;46.982;15.248;2023-06-14T06:24:01;96914.22;;;15.15;100.00
13867;BME280;7003;46.982;15.248;2023-06-14T06:26:33;96924.72;;;15.00;100.00
13867;BME280;7003;46.982;15.248;2023-06-14T06:29:03;96928.38;;;15.15;100.00
13867;BME280;7003;46.982;15.248;2023-06-14T06:31:33;96929.94;;;15.16;100.00
13867;BME280;7003;46.982;15.248;2023-06-14T06:34:01;96932.22;;;15.18;100.00
13867;BME280;7003;46.982;15.248;2023-06-14T06:36:36;96936.28;;;15.31;100.00
13867;BME280;7003;46.982;15.248;2023-06-14T06:39:04;96933.19;;;15.29;100.00
13867;BME280;7003;46.982;15.248;2023-06-14T06:41:39;96935.16;;;15.32;100.00
13867;BME280;7003;46.982;15.248;2023-06-14T06:44:07;96939.84;;;15.38;100.00
13867;BME280;7003;46.982;15.248;2023-06-14T06:46:36;96934.59;;;15.46;100.00
13867;BME280;7003;46.982;15.248;2023-06-14T06:49:09;96941.63;;;15.54;100.00
13867;BME280;7003;46.982;15.248;2023-06-14T06:51:41;96948.91;;;15.57;100.00
13867;BME280;7003;46.982;15.248;2023-06-14T06:54:10;96957.34;;;15.55;100.00
13867;BME280;7003;46.982;15.248;2023-06-14T06:56:42;96956.22;;;15.56;100.00
13867;BME280;7003;46.982;15.248;2023-06-14T06:59:10;96965.91;;;15.41;100.00
13867;BME280;7003;46.982;15.248;2023-06-14T07:01:39;96954.47;;;15.45;100.00
13867;BME280;7003;46.982;15.248;2023-06-14T07:04:09;96961.31;;;15.42;100.00
13867;BME280;7003;46.982;15.248;2023-06-14T07:06:37;96957.56;;;15.47;100.00
13867;BME280;7003;46.982;15.248;2023-06-14T07:09:07;96967.66;;;15.53;100.00
13867;BME280;7003;46.982;15.248;2023-06-14T07:11:38;96970.75;;;15.55;100.00
13867;BME280;7003;46.982;15.248;2023-06-14T07:14:10;96980.69;;;15.55;100.00
13867;BME280;7003;46.982;15.248;2023-06-14T07:16:41;96981.38;;;15.52;100.00
13867;BME280;7003;46.982;15.248;2023-06-14T07:19:10;96984.16;;;15.55;100.00
13867;BME280;7003;46.982;15.248;2023-06-14T07:21:40;96989.91;;;15.57;100.00
13867;BME280;7003;46.982;15.248;2023-06-14T07:24:08;96998.38;;;15.59;100.00
13867;BME280;7003;46.982;15.248;2023-06-14T07:26:39;96998.84;;;15.42;100.00
13867;BME280;7003;46.982;15.248;2023-06-14T07:29:07;96998.84;;;15.42;100.00
13867;BME280;7003;46.982;15.248;2023-06-14T07:31:36;97003.50;;;15.45;100.00
13867;BME280;7003;46.982;15.248;2023-06-14T07:34:03;97008.28;;;15.32;100.00
13867;BME280;7003;46.982;15.248;2023-06-14T07:36:34;97013.00;;;15.16;100.00
13867;BME280;7003;46.982;15.248;2023-06-14T07:39:04;97018.75;;;15.18;100.00
13867;BME280;7003;46.982;15.248;2023-06-14T07:41:33;97025.50;;;15.31;100.00
13867;BME280;7003;46.982;15.248;2023-06-14T07:44:01;97027.31;;;15.27;100.00
13867;BME280;7003;46.982;15.248;2023-06-14T07:46:28;97035.25;;;15.20;100.00
13867;BME280;7003;46.982;15.248;2023-06-14T07:48:57;97035.19;;;15.17;100.00
13867;BME280;7003;46.982;15.248;2023-06-14T07:51:29;97027.84;;;15.14;100.00
13867;BME280;7003;46.982;15.248;2023-06-14T07:53:56;97035.31;;;15.01;100.00
13867;BME280;7003;46.982;15.248;2023-06-14T07:56:24;97035.94;;;14.94;100.00
13867;BME280;7003;46.982;15.248;2023-06-14T07:58:51;97046.28;;;14.96;100.00
13867;BME280;7003;46.982;15.248;2023-06-14T08:01:18;97050.59;;;15.00;100.00
13867;BME280;7003;46.982;15.248;2023-06-14T08:03:46;97050.81;;;14.92;100.00
13867;BME280;7003;46.982;15.248;2023-06-14T08:06:15;97058.78;;;14.88;100.00
13867;BME280;7003;46.982;15.248;2023-06-14T08:08:42;97058.56;;;14.97;100.00
13867;BME280;7003;46.982;15.248;2023-06-14T08:11:09;97060.81;;;14.95;100.00
13867;BME280;7003;46.982;15.248;2023-06-14T08:13:37;97065.78;;;14.74;100.00
13867;BME280;7003;46.982;15.248;2023-06-14T08:16:07;97061.44;;;14.88;100.00
13867;BME280;7003;46.982;15.248;2023-06-14T08:18:37;97068.22;;;14.82;100.00
13867;BME280;7003;46.982;15.248;2023-06-14T08:21:04;97075.13;;;14.83;100.00
13867;BME280;7003;46.982;15.248;2023-06-14T08:23:34;97073.44;;;14.75;100.00
13867;BME280;7003;46.982;15.248;2023-06-14T08:26:02;97074.56;;;14.74;100.00
13867;BME280;7003;46.982;15.248;2023-06-14T08:28:30;97076.97;;;14.60;100.00
13867;BME280;7003;46.982;15.248;2023-06-14T08:30:57;97084.03;;;14.68;100.00
13867;BME280;7003;46.982;15.248;2023-06-14T08:33:24;97082.34;;;14.60;100.00
13867;BME280;7003;46.982;15.248;2023-06-14T08:35:52;97083.31;;;14.52;100.00
13867;BME280;7003;46.982;15.248;2023-06-14T08:38:19;97082.56;;;14.71;100.00
13867;BME280;7003;46.982;15.248;2023-06-14T08:40:51;97083.88;;;14.80;100.00
13867;BME280;7003;46.982;15.248;2023-06-14T08:43:19;97086.13;;;14.97;100.00
13867;BME280;7003;46.982;15.248;2023-06-14T08:45:48;97082.66;;;15.16;100.00
13867;BME280;7003;46.982;15.248;2023-06-14T08:48:23;97101.63;;;15.08;100.00
13867;BME280;7003;46.982;15.248;2023-06-14T08:50:56;97105.50;;;14.91;100.00
13867;BME280;7003;46.982;15.248;2023-06-14T08:53:30;97107.06;;;14.92;100.00
13867;BME280;7003;46.982;15.248;2023-06-14T08:56:02;97108.63;;;14.93;100.00
13867;BME280;7003;46.982;15.248;2023-06-14T08:58:30;97110.31;;;15.01;100.00
13867;BME280;7003;46.982;15.248;2023-06-14T09:01:02;97114.31;;;14.91;100.00
13867;BME280;7003;46.982;15.248;2023-06-14T09:03:29;97106.00;;;14.96;100.00
13867;BME280;7003;46.982;15.248;2023-06-14T09:05:58;97107.28;;;14.83;100.00
13867;BME280;7003;46.982;15.248;2023-06-14T09:08:29;97104.56;;;15.02;100.00
13867;BME280;7003;46.982;15.248;2023-06-14T09:10:58;97102.44;;;15.12;100.00
13867;BME280;7003;46.982;15.248;2023-06-14T09:13:29;97106.59;;;15.28;100.00
13867;BME280;7003;46.982;15.248;2023-06-14T09:15:57;97113.19;;;15.34;100.00
13867;BME280;7003;46.982;15.248;2023-06-14T09:18:34;97114.06;;;15.19;100.00
13867;BME280;7003;46.982;15.248;2023-06-14T09:21:05;97125.41;;;15.32;100.00
13867;BME280;7003;46.982;15.248;2023-06-14T09:23:36;97123.88;;;15.12;100.00
13867;BME280;7003;46.982;15.248;2023-06-14T09:26:08;97126.66;;;15.38;100.00
13867;BME280;7003;46.982;15.248;2023-06-14T09:28:43;97122.00;;;15.35;100.00
13867;BME280;7003;46.982;15.248;2023-06-14T09:31:10;97123.75;;;15.47;100.00
13867;BME280;7003;46.982;15.248;2023-06-14T09:33:42;97121.13;;;15.50;100.00
13867;BME280;7003;46.982;15.248;2023-06-14T09:36:15;97132.53;;;15.66;100.00
13867;BME280;7003;46.982;15.248;2023-06-14T09:38:52;97138.44;;;15.75;100.00
13867;BME280;7003;46.982;15.248;2023-06-14T09:41:19;97132.38;;;15.78;100.00
13867;BME280;7003;46.982;15.248;2023-06-14T09:43:48;97126.63;;;15.80;100.00
13867;BME280;7003;46.982;15.248;2023-06-14T09:46:19;97132.16;;;15.91;100.00
13867;BME280;7003;46.982;15.248;2023-06-14T09:48:49;97135.97;;;15.90;100.00
13867;BME280;7003;46.982;15.248;2023-06-14T09:51:17;97136.94;;;16.01;100.00
13867;BME280;7003;46.982;15.248;2023-06-14T09:53:47;97128.38;;;16.18;100.00
13867;BME280;7003;46.982;15.248;2023-06-14T09:56:19;97129.09;;;16.41;100.00
13867;BME280;7003;46.982;15.248;2023-06-14T09:58:54;97127.06;;;16.35;100.00
13867;BME280;7003;46.982;15.248;2023-06-14T10:01:24;97124.63;;;16.52;100.00
13867;BME280;7003;46.982;15.248;2023-06-14T10:03:55;97119.06;;;16.38;100.00
13867;BME280;7003;46.982;15.248;2023-06-14T10:06:28;97125.84;;;16.59;100.00
13867;BME280;7003;46.982;15.248;2023-06-14T10:08:58;97128.34;;;16.44;100.00
13867;BME280;7003;46.982;15.248;2023-06-14T10:11:29;97135.22;;;15.89;100.00
13867;BME280;7003;46.982;15.248;2023-06-14T10:14:01;97125.38;;;15.74;100.00
13867;BME280;7003;46.982;15.248;2023-06-14T10:16:33;97125.16;;;15.83;100.00
13867;BME280;7003;46.982;15.248;2023-06-14T10:19:06;97130.22;;;16.14;100.00
13867;BME280;7003;46.982;15.248;2023-06-14T10:21:45;97127.75;;;16.02;100.00
13867;BME280;7003;46.982;15.248;2023-06-14T10:24:18;97128.88;;;16.01;100.00
13867;BME280;7003;46.982;15.248;2023-06-14T10:26:54;97129.75;;;15.59;100.00
13867;BME280;7003;46.982;15.248;2023-06-14T10:29:28;97118.00;;;15.67;100.00
13867;BME280;7003;46.982;15.248;2023-06-14T10:32:00;97117.47;;;16.34;100.00
13867;BME280;7003;46.982;15.248;2023-06-14T10:34:30;97117.72;;;16.81;100.00
13867;BME280;7003;46.982;15.248;2023-06-14T10:37:03;97118.25;;;16.34;100.00
13867;BME280;7003;46.982;15.248;2023-06-14T10:39:39;97118.31;;;16.64;100.00
13867;BME280;7003;46.982;15.248;2023-06-14T10:42:08;97118.94;;;17.17;100.00
13867;BME280;7003;46.982;15.248;2023-06-14T10:44:44;97116.19;;;17.14;100.00
13867;BME280;7003;46.982;15.248;2023-06-14T10:47:26;97105.03;;;17.49;100.00
13867;BME280;7003;46.982;15.248;2023-06-14T10:49:55;97109.47;;;17.71;100.00
13867;BME280;7003;46.982;15.248;2023-06-14T10:52:27;97104.59;;;17.87;100.00
13867;BME280;7003;46.982;15.248;2023-06-14T10:55:09;97102.41;;;17.56;100.00
13867;BME280;7003;46.982;15.248;2023-06-14T10:57:40;97102.16;;;17.31;100.00
13867;BME280;7003;46.982;15.248;2023-06-14T11:00:11;97099.88;;;17.74;100.00
13867;BME280;7003;46.982;15.248;2023-06-14T11:03:20;97093.53;;;17.96;100.00
13867;BME280;7003;46.982;15.248;2023-06-14T11:05:54;97094.97;;;18.41;100.00
13867;BME280;7003;46.982;15.248;2023-06-14T11:08:33;97097.69;;;18.52;100.00
13867;BME280;7003;46.982;15.248;2023-06-14T11:11:07;97101.16;;;18.52;100.00
13867;BME280;7003;46.982;15.248;2023-06-14T11:13:37;97101.28;;;17.60;100.00
13867;BME280;7003;46.982;15.248;2023-06-14T11:16:12;97095.66;;;17.36;100.00
13867;BME280;7003;46.982;15.248;2023-06-14T11:18:40;97094.34;;;17.19;100.00
13867;BME280;7003;46.982;15.248;2023-06-14T11:21:08;97089.81;;;16.60;100.00
13867;BME280;7003;46.982;15.248;2023-06-14T11:23:36;97087.09;;;16.86;100.00
13867;BME280;7003;46.982;15.248;2023-06-14T11:26:04;97088.38;;;16.99;100.00
13867;BME280;7003;46.982;15.248;2023-06-14T11:28:36;97088.13;;;17.11;100.00
13867;BME280;7003;46.982;15.248;2023-06-14T11:31:07;97087.69;;;17.06;100.00
13867;BME280;7003;46.982;15.248;2023-06-14T11:33:38;97079.19;;;17.00;100.00
13867;BME280;7003;46.982;15.248;2023-06-14T11:36:08;97084.00;;;17.21;100.00
13867;BME280;7003;46.982;15.248;2023-06-14T11:38:39;97076.22;;;17.49;100.00
13867;BME280;7003;46.982;15.248;2023-06-14T11:41:09;97077.25;;;17.38;100.00
13867;BME280;7003;46.982;15.248;2023-06-14T11:43:39;97072.53;;;17.68;100.00
13867;BME280;7003;46.982;15.248;2023-06-14T11:46:12;97077.38;;;17.52;100.00
13867;BME280;7003;46.982;15.248;2023-06-14T11:48:45;97073.28;;;17.61;100.00
13867;BME280;7003;46.982;15.248;2023-06-14T11:51:12;97073.06;;;17.40;100.00
13867;BME280;7003;46.982;15.248;2023-06-14T11:53:42;97075.16;;;17.61;100.00
13867;BME280;7003;46.982;15.248;2023-06-14T11:56:12;97064.16;;;17.33;100.00
13867;BME280;7003;46.982;15.248;2023-06-14T11:58:42;97069.31;;;17.11;100.00
13867;BME280;7003;46.982;15.248;2023-06-14T12:01:14;97073.41;;;16.98;100.00
13867;BME280;7003;46.982;15.248;2023-06-14T12:03:48;97066.44;;;17.30;100.00
13867;BME280;7003;46.982;15.248;2023-06-14T12:06:16;97061.38;;;17.62;100.00
13867;BME280;7003;46.982;15.248;2023-06-14T12:08:45;97067.84;;;18.09;100.00
13867;BME280;7003;46.982;15.248;2023-06-14T12:11:15;97067.97;;;18.27;100.00
13867;BME280;7003;46.982;15.248;2023-06-14T12:13:43;97068.41;;;18.43;100.00
13867;BME280;7003;46.982;15.248;2023-06-14T12:16:11;97059.91;;;18.37;100.00
13867;BME280;7003;46.982;15.248;2023-06-14T12:18:42;97068.28;;;18.22;100.00
13867;BME280;7003;46.982;15.248;2023-06-14T12:21:13;97061.00;;;18.22;100.00
13867;BME280;7003;46.982;15.248;2023-06-14T12:23:45;97055.34;;;18.41;100.00
13867;BME280;7003;46.982;15.248;2023-06-14T12:26:16;97061.03;;;18.29;100.00
13867;BME280;7003;46.982;15.248;2023-06-14T12:28:47;97064.13;;;18.31;100.00
13867;BME280;7003;46.982;15.248;2023-06-14T12:31:15;97060.25;;;18.29;100.00
13867;BME280;7003;46.982;15.248;2023-06-14T12:33:44;97062.50;;;18.16;100.00
13867;BME280;7003;46.982;15.248;2023-06-14T12:36:16;97059.09;;;18.26;100.00
13867;BME280;7003;46.982;15.248;2023-06-14T12:38:43;97057.22;;;18.37;100.00
13867;BME280;7003;46.982;15.248;2023-06-14T12:41:14;97053.38;;;18.35;100.00
13867;BME280;7003;46.982;15.248;2023-06-14T12:43:41;97054.19;;;18.46;100.00
13867;BME280;7003;46.982;15.248;2023-06-14T12:46:09;97046.34;;;18.20;100.00
13867;BME280;7003;46.982;15.248;2023-06-14T12:48:36;97045.50;;;18.05;100.00
13867;BME280;7003;46.982;15.248;2023-06-14T12:51:04;97042.31;;;17.89;100.00
13867;BME280;7003;46.982;15.248;2023-06-14T12:53:33;97057.38;;;17.93;100.00
13867;BME280;7003;46.982;15.248;2023-06-14T12:56:03;97047.00;;;17.95;100.00
13867;BME280;7003;46.982;15.248;2023-06-14T12:58:30;97048.59;;;18.03;100.00
13867;BME280;7003;46.982;15.248;2023-06-14T13:00:58;97049.47;;;18.29;100.00
13867;BME280;7003;46.982;15.248;2023-06-14T13:03:25;97048.94;;;18.81;100.00